地図

経路データ

SID SEASON NUMBER BASIN SUBBASIN NAME ISO_TIME NATURE LAT LON WMO_WIND WMO_PRES WMO_AGENCY TRACK_TYPE DIST2LAND LANDFALL IFLAG USA_AGENCY USA_ATCF_ID USA_LAT USA_LON USA_RECORD USA_STATUS USA_WIND USA_PRES USA_SSHS USA_R34_NE USA_R34_SE USA_R34_SW USA_R34_NW USA_R50_NE USA_R50_SE USA_R50_SW USA_R50_NW USA_R64_NE USA_R64_SE USA_R64_SW USA_R64_NW USA_POCI USA_ROCI USA_RMW USA_EYE TOKYO_LAT TOKYO_LON TOKYO_GRADE TOKYO_WIND TOKYO_PRES TOKYO_R50_DIR TOKYO_R50_LONG TOKYO_R50_SHORT TOKYO_R30_DIR TOKYO_R30_LONG TOKYO_R30_SHORT TOKYO_LAND CMA_LAT CMA_LON CMA_CAT CMA_WIND CMA_PRES HKO_LAT HKO_LON HKO_CAT HKO_WIND HKO_PRES NEWDELHI_LAT NEWDELHI_LON NEWDELHI_GRADE NEWDELHI_WIND NEWDELHI_PRES NEWDELHI_CI NEWDELHI_DP NEWDELHI_POCI REUNION_LAT REUNION_LON REUNION_TYPE REUNION_WIND REUNION_PRES REUNION_TNUM REUNION_CI REUNION_RMW REUNION_R34_NE REUNION_R34_SE REUNION_R34_SW REUNION_R34_NW REUNION_R50_NE REUNION_R50_SE REUNION_R50_SW REUNION_R50_NW REUNION_R64_NE REUNION_R64_SE REUNION_R64_SW REUNION_R64_NW BOM_LAT BOM_LON BOM_TYPE BOM_WIND BOM_PRES BOM_TNUM BOM_CI BOM_RMW BOM_R34_NE BOM_R34_SE BOM_R34_SW BOM_R34_NW BOM_R50_NE BOM_R50_SE BOM_R50_SW BOM_R50_NW BOM_R64_NE BOM_R64_SE BOM_R64_SW BOM_R64_NW BOM_ROCI BOM_POCI BOM_EYE BOM_POS_METHOD BOM_PRES_METHOD NADI_LAT NADI_LON NADI_CAT NADI_WIND NADI_PRES WELLINGTON_LAT WELLINGTON_LON WELLINGTON_WIND WELLINGTON_PRES DS824_LAT DS824_LON DS824_STAGE DS824_WIND DS824_PRES TD9636_LAT TD9636_LON TD9636_STAGE TD9636_WIND TD9636_PRES TD9635_LAT TD9635_LON TD9635_WIND TD9635_PRES TD9635_ROCI NEUMANN_LAT NEUMANN_LON NEUMANN_CLASS NEUMANN_WIND NEUMANN_PRES MLC_LAT MLC_LON MLC_CLASS MLC_WIND MLC_PRES USA_GUST BOM_GUST BOM_GUST_PER REUNION_GUST REUNION_GUST_PER USA_SEAHGT USA_SEARAD_NE USA_SEARAD_SE USA_SEARAD_SW USA_SEARAD_NW STORM_SPEED STORM_DIR
1953049N07167 1953 10 WP MM IRMA 1953-02-18 00:00:00 TS 7.10000 167.100 main 1872 1848 O________OOO__ jtwc_wp WP021953 7.10000 167.100 15 -1 7.10000 167.100 TC 15 7.10000 167.100 1 15 7.10000 167.100 15 1005 180 13 270
1953049N07167 1953 10 WP MM IRMA 1953-02-18 03:00:00 TS 7.10448 166.464 main 1848 1823 P________PPP__ WP021953 7.11244 166.510 15 -1 7.11244 166.510 TC 15 7.08062 166.327 1 15 7.11244 166.510 15 1005 180 14 270
1953049N07167 1953 10 WP MM IRMA 1953-02-18 06:00:00 TS 7.08962 165.738 main 1819 1774 O________OPO__ jtwc_wp WP021953 7.10000 165.800 15 -1 7.10000 165.800 TC 15 7.05848 165.552 1 15 7.10000 165.800 15 1005 180 16 268
1953049N07167 1953 10 WP MM IRMA 1953-02-18 09:00:00 TS 7.04566 164.875 main 1774 1723 P________PPP__ WP021953 7.05018 164.907 15 -1 7.05018 164.907 TC 15 7.03210 164.777 1 15 7.05018 164.907 15 1004 180 17 267
1953049N07167 1953 10 WP MM IRMA 1953-02-18 12:00:00 TS 7.00000 164.000 main 1723 1680 O________OOO__ jtwc_wp WP021953 7.00000 164.000 15 -1 7.00000 164.000 TC 15 7.00000 164.000 1 15 7.00000 164.000 15 1004 180 16 268
1953049N07167 1953 10 WP MM IRMA 1953-02-18 15:00:00 TS 6.99035 163.275 main 1680 1636 P________PPP__ WP021953 6.99964 163.293 15 -1 6.99964 163.293 TC 15 6.96248 163.221 1 15 6.99964 163.293 15 1004 180 14 269
1953049N07167 1953 10 WP MM IRMA 1953-02-18 18:00:00 TS 6.98177 162.561 main 1636 1569 O________OPO__ jtwc_wp WP021953 7.00000 162.600 15 -1 7.00000 162.600 TC 15 6.92707 162.442 1 15 7.00000 162.600 15 1004 180 15 268
1953049N07167 1953 10 WP MM IRMA 1953-02-18 21:00:00 TS 6.93828 161.741 main 1562 1508 P________PPP__ WP021953 6.95000 161.765 15 -1 6.95000 161.765 TC 15 6.90312 161.668 1 15 6.95000 161.765 15 1004 180 17 267
1953049N07167 1953 10 WP MM IRMA 1953-02-19 00:00:00 TS 6.90000 160.900 main 1508 1454 O________OOO__ jtwc_wp WP021953 6.90000 160.900 15 -1 6.90000 160.900 TC 15 6.90000 160.900 1 15 6.90000 160.900 15 1004 180 16 268
1953049N07167 1953 10 WP MM IRMA 1953-02-19 03:00:00 TS 6.88395 160.095 main 1454 1408 P________PPP__ WP021953 6.87740 160.077 15 -1 6.87740 160.077 TC 15 6.90361 160.147 1 17 6.87740 160.077 15 1004 180 16 270
1953049N07167 1953 10 WP MM IRMA 1953-02-19 06:00:00 TS 6.90797 159.325 main 1401 1370 O________OPO__ jtwc_wp WP021953 6.90000 159.300 15 -1 6.90000 159.300 TC 15 6.93189 159.400 1 20 6.90000 159.300 15 1004 180 15 273
1953049N07167 1953 10 WP MM IRMA 1953-02-19 09:00:00 TS 6.97023 158.619 main 1367 1336 P________PPP__ WP021953 6.96222 158.607 20 -1 6.96222 158.607 TC 20 6.99423 158.653 1 22 6.96222 158.607 20 1003 180 14 278
1953049N07167 1953 10 WP MM IRMA 1953-02-19 12:00:00 TS 7.10000 157.900 main 1336 1311 O________OOO__ jtwc_wp WP021953 7.10000 157.900 25 -1 7.10000 157.900 TC 25 7.10000 157.900 1 25 7.10000 157.900 25 1003 180 16 283
1953049N07167 1953 10 WP MM IRMA 1953-02-19 15:00:00 TS 7.31906 157.069 main 1311 1290 P________PPP__ WP021953 7.34258 157.050 25 -1 7.34258 157.050 TC 25 7.24852 157.124 1 25 7.34258 157.050 25 1003 180 17 286
1953049N07167 1953 10 WP MM IRMA 1953-02-19 18:00:00 TS 7.55993 156.236 main 1295 1276 O________OPO__ jtwc_wp WP021953 7.60000 156.200 25 -1 7.60000 156.200 TC 25 7.43971 156.343 1 25 7.60000 156.200 25 1003 180 16 285
1953049N07167 1953 10 WP MM IRMA 1953-02-19 21:00:00 TS 7.73874 155.516 main 1272 1261 P________PPP__ WP021953 7.76465 155.500 25 -1 7.76465 155.500 TC 25 7.66102 155.565 1 25 7.76465 155.500 25 1003 180 15 283
1953049N07167 1953 10 WP MM IRMA 1953-02-20 00:00:00 TS 7.90000 154.800 main 1264 1247 O________OOO__ jtwc_wp WP021953 7.90000 154.800 25 -1 7.90000 154.800 TC 25 7.90000 154.800 1 25 7.90000 154.800 25 1003 180 16 281
1953049N07167 1953 10 WP MM IRMA 1953-02-20 03:00:00 TS 8.04380 153.968 main 1247 1244 P________PPP__ WP021953 8.02017 153.935 32 -1 8.02017 153.935 TC 32 8.11471 154.068 1 28 8.02017 153.935 32 1003 180 17 282
1953049N07167 1953 10 WP MM IRMA 1953-02-20 06:00:00 TS 8.24370 153.166 1000 tokyo main 1247 1247 OOO______OPO__ jtwc_wp WP021953 8.20000 153.100 40 0 8.30000 153.200 9 1000 0 0 0 8.30000 153.200 2 38 1000 8.20000 153.100 TC 40 8.34667 153.349 1 32 8.20000 153.100 40 1003 180 15 291
1953049N07167 1953 10 WP MM IRMA 1953-02-20 09:00:00 TS 8.59232 152.538 main 1278 1278 PPP______PPP__ WP021953 8.51956 152.492 40 0 8.76008 152.590 9 1000 0 0 8.83517 152.575 2 38 1000 8.51956 152.492 TC 40 8.60530 152.631 1 36 8.51956 152.492 40 1003 180 15 301
1953049N07167 1953 10 WP MM IRMA 1953-02-20 12:00:00 TS 8.99545 151.900 1000 tokyo main 1315 1314 OOO______OOO__ jtwc_wp WP021953 8.90000 151.900 40 0 9.20000 151.900 9 1000 0 0 0 9.30000 151.900 2 38 1000 8.90000 151.900 TC 40 8.90000 151.900 2 40 8.90000 151.900 40 1003 180 16 299
1953049N07167 1953 10 WP MM IRMA 1953-02-20 15:00:00 TS 9.37040 151.121 main 1352 1345 PPP______PPP__ WP021953 9.24256 151.122 40 0 9.59499 151.080 9 1000 0 0 9.64484 151.137 2 38 1000 9.24256 151.122 TC 40 9.25490 151.144 2 48 9.24256 151.122 40 1003 180 17 294
1953049N07167 1953 10 WP MM IRMA 1953-02-20 18:00:00 TS 9.70699 150.295 1000 tokyo main 1360 1358 OOO______OPO__ jtwc_wp WP021953 9.60000 150.300 40 0 9.90000 150.200 9 1000 0 0 0 9.90000 150.300 2 38 1000 9.60000 150.300 TC 40 9.64192 150.373 2 57 9.60000 150.300 40 1004 180 17 293
1953049N07167 1953 10 WP MM IRMA 1953-02-20 21:00:00 TS 10.0503 149.506 main 1386 1383 PPP______PPP__ WP021953 10.0222 149.558 57 0 10.0722 149.357 9 990 0 0 10.1299 149.415 2 48 995 10.0222 149.558 TC 57 10.0330 149.590 2 66 10.0222 149.558 57 1003 180 17 292
1953049N07167 1953 10 WP MM IRMA 1953-02-21 00:00:00 TS 10.3500 148.700 980 tokyo main 1408 1396 OOO______OOO__ jtwc_wp WP021953 10.4000 148.800 75 1 10.2000 148.500 9 980 0 0 0 10.3000 148.500 3 58 990 10.4000 148.800 TC 75 10.4000 148.800 3 75 10.4000 148.800 75 1003 180 17 287
1953049N07167 1953 10 WP MM IRMA 1953-02-21 03:00:00 TS 10.5456 147.823 main 1412 1412 PPP______PPP__ WP021953 10.6075 147.950 75 1 10.3776 147.570 9 980 0 0 10.3776 147.555 3 63 985 10.6075 147.950 TC 75 10.6958 147.962 3 75 10.6075 147.950 75 1001 180 17 283
1953049N07167 1953 10 WP MM IRMA 1953-02-21 06:00:00 TS 10.7442 146.971 980 tokyo main 1434 1434 OOO______OPO__ jtwc_wp WP021953 10.8000 147.100 75 1 10.6000 146.700 9 980 0 0 0 10.5000 146.700 4 68 980 10.8000 147.100 TC 75 10.9654 147.125 3 75 10.8000 147.100 75 999 180 17 287
1953049N07167 1953 10 WP MM IRMA 1953-02-21 09:00:00 TS 11.0423 146.207 main 1468 1468 PPP______PPP__ WP021953 11.1274 146.298 75 1 10.8548 145.982 9 980 0 0 10.7897 146.040 4 72 980 11.1274 146.298 TC 75 11.2272 146.325 3 75 11.1274 146.298 75 997 180 14 295
1953049N07167 1953 10 WP MM IRMA 1953-02-21 12:00:00 TS 11.3520 145.648 980 tokyo main 1516 1516 OOO______OOO__ jtwc_wp WP021953 11.5000 145.600 75 1 11.2000 145.400 9 980 0 0 0 11.2000 145.500 4 77 980 11.5000 145.600 TC 75 11.5000 145.600 4 75 11.5000 145.600 75 996 180 13 304
1953049N07167 1953 10 WP MM IRMA 1953-02-21 15:00:00 TS 11.7388 145.147 main 1555 1555 PPP______PPP__ WP021953 11.8571 145.070 75 1 11.6997 144.935 9 980 0 0 11.7073 144.985 4 77 980 11.8571 145.070 TC 75 11.8216 145.000 4 75 11.8571 145.070 75 994 150 13 309
1953049N07167 1953 10 WP MM IRMA 1953-02-21 18:00:00 TS 12.1441 144.638 980 tokyo main 1606 1606 OOO______OPO__ jtwc_wp WP021953 12.2000 144.600 75 1 12.2000 144.500 9 980 0 0 0 12.2000 144.500 4 77 980 12.2000 144.600 TC 75 12.1559 144.475 4 75 12.2000 144.600 75 993 120 13 306
1953049N07167 1953 10 WP MM IRMA 1953-02-21 21:00:00 TS 12.5024 144.055 main 1658 1658 PPP______PPP__ WP021953 12.5149 144.065 75 1 12.5450 143.965 9 980 0 0 12.5374 144.007 4 77 980 12.5149 144.065 TC 75 12.4874 143.987 4 75 12.5149 144.065 75 991 120 13 300
1953049N07167 1953 10 WP MM IRMA 1953-02-22 00:00:00 TS 12.8143 143.457 980 tokyo main 1704 1704 OOO______OOO__ jtwc_wp WP021953 12.8000 143.500 75 1 12.8000 143.400 9 980 0 0 0 12.8000 143.500 4 77 980 12.8000 143.500 TC 75 12.8000 143.500 4 75 12.8000 143.500 75 990 120 13 297
1953049N07167 1953 10 WP MM IRMA 1953-02-22 03:00:00 TS 13.0833 142.862 main 1726 1720 PPP______PPP__ WP021953 13.0575 142.892 75 1 13.0149 142.842 9 980 0 0 13.0725 142.950 4 77 980 13.0575 142.892 TC 75 13.1040 142.937 4 75 13.0575 142.892 75 988 120 12 294
1953049N07167 1953 10 WP MM IRMA 1953-02-22 06:00:00 TS 13.3123 142.302 980 tokyo main 1729 1725 OOO______OPO__ jtwc_wp WP021953 13.3000 142.300 75 1 13.2000 142.300 9 980 0 0 0 13.3000 142.400 4 77 980 13.3000 142.300 TC 75 13.3825 142.370 4 75 13.3000 142.300 75 986 120 11 294
1953049N07167 1953 10 WP MM IRMA 1953-02-22 09:00:00 TS 13.5346 141.796 main 1729 1721 PPP______PPP__ WP021953 13.5724 141.770 75 1 13.4224 141.785 9 980 0 0 13.4724 141.892 4 77 980 13.5724 141.770 TC 75 13.6197 141.818 4 75 13.5724 141.770 75 984 120 10 293
1953049N07167 1953 10 WP MM IRMA 1953-02-22 12:00:00 TS 13.7143 141.329 980 tokyo main 1711 1670 OOO______OOO__ jtwc_wp WP021953 13.8000 141.300 75 1 13.6000 141.300 9 980 0 0 0 13.6000 141.400 4 77 980 13.8000 141.300 TC 75 13.8000 141.300 4 75 13.8000 141.300 75 983 120 9 289
1953049N07167 1953 10 WP MM IRMA 1953-02-22 15:00:00 TS 13.8372 140.887 main 1670 1629 PPP______PPP__ WP021953 13.9373 140.892 75 1 13.6648 140.857 9 980 0 0 13.6999 140.900 4 77 980 13.9373 140.892 TC 75 13.9065 140.871 4 81 13.9373 140.892 75 981 120 9 283
1953049N07167 1953 10 WP MM IRMA 1953-02-22 18:00:00 TS 13.9147 140.454 980 tokyo main 1629 1578 OOO______OPO__ jtwc_wp WP021953 14.0000 140.500 75 1 13.7000 140.400 9 980 0 0 0 13.8000 140.400 4 77 980 14.0000 140.500 TC 75 13.9585 140.472 4 87 14.0000 140.500 75 980 120 9 279
1953049N07167 1953 10 WP MM IRMA 1953-02-22 21:00:00 TS 13.9765 139.999 main 1578 1525 PPP______PPP__ WP021953 14.0073 140.087 87 2 13.7850 139.857 9 980 0 0 13.9574 139.908 4 87 977 14.0073 140.087 TC 87 13.9814 140.062 4 93 14.0073 140.087 87 979 150 9 277
1953049N07167 1953 10 WP MM IRMA 1953-02-23 00:00:00 TS 14.0286 139.500 980 tokyo main 1525 1474 OOO______OOO__ jtwc_wp WP021953 14.0000 139.600 100 3 13.9000 139.300 9 980 0 0 0 14.1000 139.400 5 97 975 14.0000 139.600 TC 100 14.0000 139.600 4 100 14.0000 139.600 100 979 180 10 277
1953049N07167 1953 10 WP MM IRMA 1953-02-23 03:00:00 TS 14.1023 138.937 main 1464 1414 PPP______PPP__ WP021953 14.0426 138.973 82 1 14.0646 138.823 9 980 0 0 14.1723 138.880 5 97 975 14.0426 138.973 TC 82 14.0788 139.021 4 91 14.0426 138.973 82 985 150 11 277
1953049N07167 1953 10 WP MM IRMA 1953-02-23 06:00:00 TS 14.1660 138.332 980 tokyo main 1403 1340 OOO______OPO__ jtwc_wp WP021953 14.1000 138.300 65 1 14.2000 138.300 9 980 0 0 0 14.2000 138.300 5 97 975 14.1000 138.300 TC 65 14.1530 138.388 4 82 14.1000 138.300 65 992 120 12 275
1953049N07167 1953 10 WP MM IRMA 1953-02-23 09:00:00 TS 14.2156 137.705 main 1340 1276 PPP______PPP__ WP021953 14.1798 137.685 65 1 14.2377 137.607 9 980 0 0 14.2152 137.600 5 92 977 14.1798 137.685 TC 65 14.2006 137.736 4 73 14.1798 137.685 65 994 120 12 272
1953049N07167 1953 10 WP MM IRMA 1953-02-23 12:00:00 TS 14.2143 137.086 980 tokyo main 1276 1221 OOO______OOO__ jtwc_wp WP021953 14.2000 137.100 65 1 14.2000 136.900 9 980 0 0 0 14.2000 136.900 5 87 980 14.2000 137.100 TC 65 14.2000 137.100 4 65 14.2000 137.100 65 997 120 11 265
1953049N07167 1953 10 WP MM IRMA 1953-02-23 15:00:00 TS 14.1233 136.524 main 1210 1155 PPP______PPP__ WP021953 14.0723 136.542 65 1 14.1148 136.320 9 985 0 0 14.1648 136.320 5 77 985 14.0723 136.542 TC 65 14.0957 136.560 4 65 14.0723 136.542 65 999 150 11 258
1953049N07167 1953 10 WP MM IRMA 1953-02-23 18:00:00 TS 13.9957 135.983 990 tokyo main 1155 1100 OOO______OPO__ jtwc_wp WP021953 13.9000 136.000 65 1 14.0000 135.800 9 990 0 0 0 14.1000 135.800 4 68 990 13.9000 136.000 TC 65 13.9483 136.036 4 65 13.9000 136.000 65 1002 180 11 257
1953049N07167 1953 10 WP MM IRMA 1953-02-23 21:00:00 TS 13.8827 135.452 main 1100 1034 PPP______PPP__ WP021953 13.7772 135.480 65 1 13.8847 135.315 9 990 0 0 13.9997 135.315 4 68 990 13.7772 135.480 TC 65 13.8018 135.494 4 65 13.7772 135.480 65 1003 150 11 260
1953049N07167 1953 10 WP MM IRMA 1953-02-24 00:00:00 TS 13.8000 134.871 990 tokyo main 1034 959 OOO______OOO__ jtwc_wp WP021953 13.7000 134.900 65 1 13.8000 134.800 9 990 0 0 0 13.9000 134.800 4 68 990 13.7000 134.900 TC 65 13.7000 134.900 4 65 13.7000 134.900 65 1004 120 12 265
1953049N07167 1953 10 WP MM IRMA 1953-02-24 03:00:00 TS 13.7731 134.180 main 959 885 PPP______PPP__ WP021953 13.6700 134.180 65 1 13.7849 134.188 9 992 0 0 13.8349 134.187 4 63 992 13.6700 134.180 TC 65 13.7119 134.212 4 65 13.6700 134.180 65 1003 120 14 269
1953049N07167 1953 10 WP MM IRMA 1953-02-24 06:00:00 TS 13.7868 133.426 995 tokyo main 874 800 OOO______OPO__ jtwc_wp WP021953 13.7000 133.400 65 1 13.8000 133.500 9 995 0 0 0 13.8000 133.500 3 58 995 13.7000 133.400 TC 65 13.7699 133.469 4 65 13.7000 133.400 65 1002 120 15 272
1953049N07167 1953 10 WP MM IRMA 1953-02-24 09:00:00 TS 13.8314 132.670 main 800 719 PPP______PPP__ WP021953 13.7996 132.665 65 1 13.7998 132.772 9 995 0 0 13.7923 132.773 3 58 995 13.7996 132.665 TC 65 13.8430 132.690 4 65 13.7996 132.665 65 1002 120 15 273
1953049N07167 1953 10 WP MM IRMA 1953-02-24 12:00:00 TS 13.8714 131.886 995 tokyo main 719 636 OOO______OOO__ jtwc_wp WP021953 13.9000 131.900 65 1 13.8000 132.000 9 995 0 0 0 13.8000 132.000 3 58 995 13.9000 131.900 TC 65 13.9000 131.900 4 65 13.9000 131.900 65 1003 120 15 271
1953049N07167 1953 10 WP MM IRMA 1953-02-24 15:00:00 TS 13.8711 131.077 main 636 550 PPP______PPP__ WP021953 13.9226 131.042 52 0 13.8366 131.268 9 997 0 0 13.8366 131.268 3 53 997 13.9226 131.042 TC 52 13.8999 131.136 4 58 13.9226 131.042 52 1003 120 16 268
1953049N07167 1953 10 WP MM IRMA 1953-02-24 18:00:00 TS 13.8227 130.236 1000 tokyo main 540 455 OOO______OPO__ jtwc_wp WP021953 13.9000 130.200 40 0 13.8000 130.400 9 1000 0 0 0 13.8000 130.400 3 48 1000 13.9000 130.200 TC 40 13.8790 130.365 4 52 13.9000 130.200 40 1004 120 17 265
1953049N07167 1953 10 WP MM IRMA 1953-02-24 21:00:00 TS 13.7104 129.356 main 455 361 PPP______PPP__ WP021953 13.8645 129.493 40 0 13.5587 129.177 9 1000 0 0 13.5886 129.184 3 48 1000 13.8645 129.493 TC 40 13.8436 129.586 4 46 13.8645 129.493 40 1004 120 17 262
1953049N07167 1953 10 WP MM IRMA 1953-02-25 00:00:00 TS 13.5714 128.500 1000 tokyo main 361 288 OOO______OOO__ jtwc_wp WP021953 13.8000 128.800 40 0 13.3000 128.000 9 1000 0 0 0 13.3000 128.000 3 48 1000 13.8000 128.800 TC 40 13.8000 128.800 2 40 13.8000 128.800 40 1005 120 16 261
1953049N07167 1953 10 WP MM IRMA 1953-02-25 03:00:00 TS 13.4602 127.726 main 279 204 PPP______PPP__ WP021953 13.6924 128.015 32 -1 13.2792 127.238 9 1003 0 0 13.0493 127.188 3 43 1003 13.6924 128.015 TC 32 13.7534 128.007 2 36 13.6924 128.015 32 1005 120 15 260
1953049N07167 1953 10 WP MM IRMA 1953-02-25 06:00:00 TS 13.3012 126.979 1006 tokyo main 204 133 OOO______OPO__ jtwc_wp WP021953 13.6000 127.200 25 -1 13.2000 126.700 9 1006 0 0 0 12.8000 126.600 2 38 1006 13.6000 127.200 TC 25 13.7046 127.207 2 32 13.6000 127.200 25 1006 120 14 254
1953049N07167 1953 10 WP MM IRMA 1953-02-25 09:00:00 TS 13.0638 126.310 main 133 63 PPP______PPP__ WP021953 13.5779 126.395 25 -1 12.7871 126.250 9 1009 0 0 12.5571 126.135 2 30 1009 13.5779 126.395 TC 25 13.6535 126.405 2 28 13.5779 126.395 25 1006 90 14 244
1953049N07167 1953 10 WP MM IRMA 1953-02-25 12:00:00 TS 12.7000 125.725 1012 tokyo main 54 0 OOO______OOO__ jtwc_wp WP021953 13.6000 125.600 25 -1 12.3000 125.800 2 1012 0 0 0 12.3000 125.700 1 23 1012 13.6000 125.600 TC 25 13.6000 125.600 1 25 13.6000 125.600 25 1007 60 14 230
1953049N07167 1953 10 WP MM IRMA 1953-02-25 15:00:00 TS 12.1734 125.232 main 0 0 _PP___________ WP021953 -1 12.0593 125.256 2 1012 0 0 12.0893 125.198 1 1012 TC 1 14 233
1953049N07167 1953 10 WP MM IRMA 1953-02-25 18:00:00 TS 11.8345 124.563 1012 tokyo main 24 15 _OO___________ -1 11.7000 124.500 2 1012 0 0 0 11.7000 124.500 0 1012 1 18 238
1953049N07167 1953 10 WP MM IRMA 1953-02-25 21:00:00 TS 11.2455 123.690 main 21 0 _PP___________ -1 10.9689 123.438 2 1012 0 0 10.9589 123.490 0 1012 1 23 234
1953049N07167 1953 10 WP MM IRMA 1953-02-26 00:00:00 TS 10.5000 122.700 1012 tokyo main 10 _OO___________ -1 10.0000 122.200 2 1012 0 0 0 10.0000 122.300 0 1012 25 233

デジタル台風データ・検索

IBTrACS Databaseについて

本データベースは、米国NOAAが公開する1842年以降の世界の熱帯低気圧のベストトラックデータアーカイブInternational Best Track Archive for Climate Stewardship (IBTrACS)を、ウェブで閲覧しやすい形式に変換したものです。

最終更新日:2021-10-08